sensor_id;sensor_type;location;lat;lon;timestamp;temperature;humidity
3923;DHT22;1976;51.694;6.256;2022-11-15T00:00:25;9.10;99.90
3923;DHT22;1976;51.694;6.256;2022-11-15T00:02:55;9.10;99.90
3923;DHT22;1976;51.694;6.256;2022-11-15T00:05:21;9.10;99.90
3923;DHT22;1976;51.694;6.256;2022-11-15T00:07:46;9.10;99.90
3923;DHT22;1976;51.694;6.256;2022-11-15T00:10:12;9.00;99.90
3923;DHT22;1976;51.694;6.256;2022-11-15T00:12:38;8.90;99.90
3923;DHT22;1976;51.694;6.256;2022-11-15T00:15:04;8.90;99.90
3923;DHT22;1976;51.694;6.256;2022-11-15T00:17:30;8.90;99.90
3923;DHT22;1976;51.694;6.256;2022-11-15T00:19:56;8.90;99.90
3923;DHT22;1976;51.694;6.256;2022-11-15T00:22:21;8.90;99.90
3923;DHT22;1976;51.694;6.256;2022-11-15T00:24:47;8.90;99.90
3923;DHT22;1976;51.694;6.256;2022-11-15T00:27:12;9.00;99.90
3923;DHT22;1976;51.694;6.256;2022-11-15T00:29:38;9.00;99.90
3923;DHT22;1976;51.694;6.256;2022-11-15T00:32:11;8.90;99.90
3923;DHT22;1976;51.694;6.256;2022-11-15T00:34:37;9.00;99.90
3923;DHT22;1976;51.694;6.256;2022-11-15T00:37:03;9.00;99.90
3923;DHT22;1976;51.694;6.256;2022-11-15T00:39:28;9.10;99.90
3923;DHT22;1976;51.694;6.256;2022-11-15T00:41:54;9.10;99.90
3923;DHT22;1976;51.694;6.256;2022-11-15T00:44:20;9.20;99.90
3923;DHT22;1976;51.694;6.256;2022-11-15T00:46:45;9.30;99.90
3923;DHT22;1976;51.694;6.256;2022-11-15T00:49:11;9.30;99.90
3923;DHT22;1976;51.694;6.256;2022-11-15T00:51:36;9.40;99.90
3923;DHT22;1976;51.694;6.256;2022-11-15T00:54:02;9.50;99.90
3923;DHT22;1976;51.694;6.256;2022-11-15T00:56:28;9.50;99.90
3923;DHT22;1976;51.694;6.256;2022-11-15T00:58:53;9.70;99.90
3923;DHT22;1976;51.694;6.256;2022-11-15T01:01:19;9.70;99.90
3923;DHT22;1976;51.694;6.256;2022-11-15T01:03:45;9.80;99.90
3923;DHT22;1976;51.694;6.256;2022-11-15T01:06:11;9.80;99.90
3923;DHT22;1976;51.694;6.256;2022-11-15T01:08:39;9.90;99.90
3923;DHT22;1976;51.694;6.256;2022-11-15T01:11:07;9.90;99.90
3923;DHT22;1976;51.694;6.256;2022-11-15T01:13:35;10.00;99.90
3923;DHT22;1976;51.694;6.256;2022-11-15T01:16:13;10.00;99.90
3923;DHT22;1976;51.694;6.256;2022-11-15T01:18:39;10.00;99.90
3923;DHT22;1976;51.694;6.256;2022-11-15T01:21:07;9.90;99.90
3923;DHT22;1976;51.694;6.256;2022-11-15T01:23:33;10.00;99.90
3923;DHT22;1976;51.694;6.256;2022-11-15T01:26:03;10.10;99.90
3923;DHT22;1976;51.694;6.256;2022-11-15T01:28:34;10.20;99.90
3923;DHT22;1976;51.694;6.256;2022-11-15T01:31:13;10.10;99.90
3923;DHT22;1976;51.694;6.256;2022-11-15T01:33:39;10.10;99.90
3923;DHT22;1976;51.694;6.256;2022-11-15T01:36:07;10.20;99.90
3923;DHT22;1976;51.694;6.256;2022-11-15T01:38:34;10.10;99.90
3923;DHT22;1976;51.694;6.256;2022-11-15T01:40:59;10.20;99.90
3923;DHT22;1976;51.694;6.256;2022-11-15T01:43:26;10.20;99.90
3923;DHT22;1976;51.694;6.256;2022-11-15T01:46:40;10.10;99.90
3923;DHT22;1976;51.694;6.256;2022-11-15T01:48:47;10.00;99.90
3923;DHT22;1976;51.694;6.256;2022-11-15T01:51:13;10.00;99.90
3923;DHT22;1976;51.694;6.256;2022-11-15T01:53:44;9.90;99.90
3923;DHT22;1976;51.694;6.256;2022-11-15T01:56:23;9.90;99.90
3923;DHT22;1976;51.694;6.256;2022-11-15T01:58:51;9.90;99.90
3923;DHT22;1976;51.694;6.256;2022-11-15T02:01:18;10.00;99.90
3923;DHT22;1976;51.694;6.256;2022-11-15T02:04:24;9.90;99.90
3923;DHT22;1976;51.694;6.256;2022-11-15T02:06:43;9.90;99.90
3923;DHT22;1976;51.694;6.256;2022-11-15T02:09:10;10.00;99.90
3923;DHT22;1976;51.694;6.256;2022-11-15T02:11:36;9.90;99.90
3923;DHT22;1976;51.694;6.256;2022-11-15T02:14:03;10.00;99.90
3923;DHT22;1976;51.694;6.256;2022-11-15T02:36:01;10.20;99.90
3923;DHT22;1976;51.694;6.256;2022-11-15T02:41:30;10.30;99.90
3923;DHT22;1976;51.694;6.256;2022-11-15T02:44:13;10.40;99.90
3923;DHT22;1976;51.694;6.256;2022-11-15T02:46:53;10.40;99.90
3923;DHT22;1976;51.694;6.256;2022-11-15T02:49:50;10.50;99.90
3923;DHT22;1976;51.694;6.256;2022-11-15T02:52:18;10.50;99.90
3923;DHT22;1976;51.694;6.256;2022-11-15T02:54:57;10.60;99.90
3923;DHT22;1976;51.694;6.256;2022-11-15T03:00:20;10.70;99.90
3923;DHT22;1976;51.694;6.256;2022-11-15T03:09:56;10.80;99.90
3923;DHT22;1976;51.694;6.256;2022-11-15T03:12:26;10.90;99.90
3923;DHT22;1976;51.694;6.256;2022-11-15T03:15:41;10.90;99.90
3923;DHT22;1976;51.694;6.256;2022-11-15T03:20:24;11.00;99.90
3923;DHT22;1976;51.694;6.256;2022-11-15T03:22:50;11.00;99.90
3923;DHT22;1976;51.694;6.256;2022-11-15T03:25:22;11.00;99.90
3923;DHT22;1976;51.694;6.256;2022-11-15T03:27:52;11.00;99.90
3923;DHT22;1976;51.694;6.256;2022-11-15T03:30:19;11.00;99.90
3923;DHT22;1976;51.694;6.256;2022-11-15T03:32:51;11.10;99.90
3923;DHT22;1976;51.694;6.256;2022-11-15T03:35:26;11.10;99.90
3923;DHT22;1976;51.694;6.256;2022-11-15T03:40:53;11.20;99.90
3923;DHT22;1976;51.694;6.256;2022-11-15T03:43:47;11.20;99.90
3923;DHT22;1976;51.694;6.256;2022-11-15T03:46:20;11.20;99.90
3923;DHT22;1976;51.694;6.256;2022-11-15T03:48:53;11.20;99.90
3923;DHT22;1976;51.694;6.256;2022-11-15T03:51:19;11.20;99.90
3923;DHT22;1976;51.694;6.256;2022-11-15T03:53:46;11.30;99.90
3923;DHT22;1976;51.694;6.256;2022-11-15T03:56:11;11.40;99.90
3923;DHT22;1976;51.694;6.256;2022-11-15T03:58:37;11.40;99.90
3923;DHT22;1976;51.694;6.256;2022-11-15T04:01:03;11.40;99.90
3923;DHT22;1976;51.694;6.256;2022-11-15T04:03:28;11.50;99.90
3923;DHT22;1976;51.694;6.256;2022-11-15T04:05:54;11.50;99.90
3923;DHT22;1976;51.694;6.256;2022-11-15T04:08:20;11.50;99.90
3923;DHT22;1976;51.694;6.256;2022-11-15T04:10:48;11.60;99.90
3923;DHT22;1976;51.694;6.256;2022-11-15T04:13:14;11.60;99.90
3923;DHT22;1976;51.694;6.256;2022-11-15T04:15:39;11.60;99.90
3923;DHT22;1976;51.694;6.256;2022-11-15T04:18:05;11.70;99.90
3923;DHT22;1976;51.694;6.256;2022-11-15T04:20:31;11.70;99.90
3923;DHT22;1976;51.694;6.256;2022-11-15T04:23:23;11.80;99.90
3923;DHT22;1976;51.694;6.256;2022-11-15T04:26:18;11.70;99.90
3923;DHT22;1976;51.694;6.256;2022-11-15T04:28:45;11.80;99.90
3923;DHT22;1976;51.694;6.256;2022-11-15T04:31:29;11.80;99.90
3923;DHT22;1976;51.694;6.256;2022-11-15T04:33:54;11.80;99.90
3923;DHT22;1976;51.694;6.256;2022-11-15T04:36:21;11.80;99.90
3923;DHT22;1976;51.694;6.256;2022-11-15T04:39:05;11.80;99.90
3923;DHT22;1976;51.694;6.256;2022-11-15T04:41:30;11.70;99.90
3923;DHT22;1976;51.694;6.256;2022-11-15T04:43:56;11.70;99.90
3923;DHT22;1976;51.694;6.256;2022-11-15T04:46:23;11.70;99.90
3923;DHT22;1976;51.694;6.256;2022-11-15T04:48:49;11.70;99.90
3923;DHT22;1976;51.694;6.256;2022-11-15T04:51:15;11.80;99.90
3923;DHT22;1976;51.694;6.256;2022-11-15T04:53:41;11.70;99.90
3923;DHT22;1976;51.694;6.256;2022-11-15T04:56:07;11.70;99.90
3923;DHT22;1976;51.694;6.256;2022-11-15T04:58:32;11.60;99.90
3923;DHT22;1976;51.694;6.256;2022-11-15T05:01:06;11.70;99.90
3923;DHT22;1976;51.694;6.256;2022-11-15T05:03:32;11.70;99.90
3923;DHT22;1976;51.694;6.256;2022-11-15T05:06:16;11.70;99.90
3923;DHT22;1976;51.694;6.256;2022-11-15T05:08:42;11.80;99.90
3923;DHT22;1976;51.694;6.256;2022-11-15T05:11:07;11.80;99.90
3923;DHT22;1976;51.694;6.256;2022-11-15T05:13:33;11.70;99.90
3923;DHT22;1976;51.694;6.256;2022-11-15T05:15:58;11.70;99.90
3923;DHT22;1976;51.694;6.256;2022-11-15T05:18:24;11.70;99.90
3923;DHT22;1976;51.694;6.256;2022-11-15T05:20:50;11.70;99.90
3923;DHT22;1976;51.694;6.256;2022-11-15T05:23:15;11.70;99.90
3923;DHT22;1976;51.694;6.256;2022-11-15T05:25:42;11.70;99.90
3923;DHT22;1976;51.694;6.256;2022-11-15T05:28:08;11.60;99.90
3923;DHT22;1976;51.694;6.256;2022-11-15T05:30:33;11.70;99.90
3923;DHT22;1976;51.694;6.256;2022-11-15T05:32:59;11.70;99.90
3923;DHT22;1976;51.694;6.256;2022-11-15T05:35:41;11.80;99.90
3923;DHT22;1976;51.694;6.256;2022-11-15T05:38:07;11.80;99.90
3923;DHT22;1976;51.694;6.256;2022-11-15T05:40:34;11.70;99.90
3923;DHT22;1976;51.694;6.256;2022-11-15T05:43:01;11.70;99.90
3923;DHT22;1976;51.694;6.256;2022-11-15T05:45:28;11.60;99.90
3923;DHT22;1976;51.694;6.256;2022-11-15T05:47:56;11.60;99.90
3923;DHT22;1976;51.694;6.256;2022-11-15T05:50:23;11.70;99.90
3923;DHT22;1976;51.694;6.256;2022-11-15T05:52:48;11.60;99.90
3923;DHT22;1976;51.694;6.256;2022-11-15T05:55:14;11.70;99.90
3923;DHT22;1976;51.694;6.256;2022-11-15T05:57:40;11.70;99.90
3923;DHT22;1976;51.694;6.256;2022-11-15T06:00:07;11.70;99.90
3923;DHT22;1976;51.694;6.256;2022-11-15T06:02:33;11.70;99.90
3923;DHT22;1976;51.694;6.256;2022-11-15T06:04:59;11.70;99.90
3923;DHT22;1976;51.694;6.256;2022-11-15T06:07:24;11.70;99.90
3923;DHT22;1976;51.694;6.256;2022-11-15T06:09:50;11.70;99.90
3923;DHT22;1976;51.694;6.256;2022-11-15T06:12:15;11.70;99.90
3923;DHT22;1976;51.694;6.256;2022-11-15T06:14:41;11.70;99.90
3923;DHT22;1976;51.694;6.256;2022-11-15T06:17:07;11.70;99.90
3923;DHT22;1976;51.694;6.256;2022-11-15T06:19:32;11.80;99.90
3923;DHT22;1976;51.694;6.256;2022-11-15T06:22:01;11.80;99.90
3923;DHT22;1976;51.694;6.256;2022-11-15T06:24:27;11.80;99.90
3923;DHT22;1976;51.694;6.256;2022-11-15T06:26:53;11.80;99.90
3923;DHT22;1976;51.694;6.256;2022-11-15T06:29:19;11.80;99.90
3923;DHT22;1976;51.694;6.256;2022-11-15T06:31:44;11.80;99.90
3923;DHT22;1976;51.694;6.256;2022-11-15T06:34:10;11.80;99.90
3923;DHT22;1976;51.694;6.256;2022-11-15T06:36:36;11.80;99.90
3923;DHT22;1976;51.694;6.256;2022-11-15T06:39:05;11.80;99.90
3923;DHT22;1976;51.694;6.256;2022-11-15T06:41:34;11.90;99.90
3923;DHT22;1976;51.694;6.256;2022-11-15T06:44:00;11.80;99.90
3923;DHT22;1976;51.694;6.256;2022-11-15T06:46:26;11.80;99.90
3923;DHT22;1976;51.694;6.256;2022-11-15T06:48:52;11.80;99.90
3923;DHT22;1976;51.694;6.256;2022-11-15T06:51:19;11.90;99.90
3923;DHT22;1976;51.694;6.256;2022-11-15T06:53:45;11.90;99.90
3923;DHT22;1976;51.694;6.256;2022-11-15T06:56:11;11.90;99.90
3923;DHT22;1976;51.694;6.256;2022-11-15T06:58:36;11.90;99.90
3923;DHT22;1976;51.694;6.256;2022-11-15T07:01:07;11.90;99.90
3923;DHT22;1976;51.694;6.256;2022-11-15T07:03:39;12.00;99.90
3923;DHT22;1976;51.694;6.256;2022-11-15T07:08:31;12.00;99.90
3923;DHT22;1976;51.694;6.256;2022-11-15T07:11:05;12.00;99.90
3923;DHT22;1976;51.694;6.256;2022-11-15T07:13:32;11.90;99.90
3923;DHT22;1976;51.694;6.256;2022-11-15T07:16:03;11.90;99.90
3923;DHT22;1976;51.694;6.256;2022-11-15T07:18:28;11.90;99.90
3923;DHT22;1976;51.694;6.256;2022-11-15T07:20:55;11.90;99.90
3923;DHT22;1976;51.694;6.256;2022-11-15T07:23:20;11.90;99.90
3923;DHT22;1976;51.694;6.256;2022-11-15T07:25:46;11.90;99.90
3923;DHT22;1976;51.694;6.256;2022-11-15T07:28:12;11.90;99.90
3923;DHT22;1976;51.694;6.256;2022-11-15T07:30:37;11.80;99.90
3923;DHT22;1976;51.694;6.256;2022-11-15T07:33:03;11.70;99.90
3923;DHT22;1976;51.694;6.256;2022-11-15T07:35:29;11.70;99.90
3923;DHT22;1976;51.694;6.256;2022-11-15T07:45:22;11.50;99.90
3923;DHT22;1976;51.694;6.256;2022-11-15T07:50:16;11.50;99.90
3923;DHT22;1976;51.694;6.256;2022-11-15T07:52:42;11.40;99.90
3923;DHT22;1976;51.694;6.256;2022-11-15T08:02:26;11.60;99.90
3923;DHT22;1976;51.694;6.256;2022-11-15T08:04:52;11.70;99.90
3923;DHT22;1976;51.694;6.256;2022-11-15T08:09:43;11.70;99.90
3923;DHT22;1976;51.694;6.256;2022-11-15T08:12:09;11.70;99.90
3923;DHT22;1976;51.694;6.256;2022-11-15T08:14:35;11.70;99.90
3923;DHT22;1976;51.694;6.256;2022-11-15T08:17:01;11.70;99.90
3923;DHT22;1976;51.694;6.256;2022-11-15T08:21:52;11.70;99.90
3923;DHT22;1976;51.694;6.256;2022-11-15T08:24:18;11.60;99.90
3923;DHT22;1976;51.694;6.256;2022-11-15T08:29:10;11.70;99.90
3923;DHT22;1976;51.694;6.256;2022-11-15T08:34:03;11.80;99.90
3923;DHT22;1976;51.694;6.256;2022-11-15T08:43:56;11.90;99.90
3923;DHT22;1976;51.694;6.256;2022-11-15T08:46:21;11.90;99.90
3923;DHT22;1976;51.694;6.256;2022-11-15T08:51:13;11.90;99.90
3923;DHT22;1976;51.694;6.256;2022-11-15T08:56:10;12.10;99.90
3923;DHT22;1976;51.694;6.256;2022-11-15T09:01:03;12.50;99.90
3923;DHT22;1976;51.694;6.256;2022-11-15T09:05:56;12.60;99.90
3923;DHT22;1976;51.694;6.256;2022-11-15T09:08:22;12.70;99.90
3923;DHT22;1976;51.694;6.256;2022-11-15T09:13:14;12.50;99.90
3923;DHT22;1976;51.694;6.256;2022-11-15T09:18:06;12.50;99.90
3923;DHT22;1976;51.694;6.256;2022-11-15T09:20:31;12.50;99.90
3923;DHT22;1976;51.694;6.256;2022-11-15T09:25:27;12.50;99.90
3923;DHT22;1976;51.694;6.256;2022-11-15T09:30:19;12.40;99.90
3923;DHT22;1976;51.694;6.256;2022-11-15T09:32:45;12.40;99.90
3923;DHT22;1976;51.694;6.256;2022-11-15T09:37:36;13.60;99.90
3923;DHT22;1976;51.694;6.256;2022-11-15T09:53:14;15.60;99.90
3923;DHT22;1976;51.694;6.256;2022-11-15T09:55:51;15.50;99.90
3923;DHT22;1976;51.694;6.256;2022-11-15T09:58:48;15.80;99.90
3923;DHT22;1976;51.694;6.256;2022-11-15T10:04:02;16.20;99.90
3923;DHT22;1976;51.694;6.256;2022-11-15T10:06:28;16.60;99.90
3923;DHT22;1976;51.694;6.256;2022-11-15T10:11:27;16.80;99.90
3923;DHT22;1976;51.694;6.256;2022-11-15T10:13:56;16.80;99.90
3923;DHT22;1976;51.694;6.256;2022-11-15T10:26:54;17.60;99.90
3923;DHT22;1976;51.694;6.256;2022-11-15T10:31:47;17.80;99.90
3923;DHT22;1976;51.694;6.256;2022-11-15T10:34:23;18.00;99.90
3923;DHT22;1976;51.694;6.256;2022-11-15T10:36:56;18.30;99.50
3923;DHT22;1976;51.694;6.256;2022-11-15T10:39:23;18.10;97.70
3923;DHT22;1976;51.694;6.256;2022-11-15T10:41:49;18.10;98.00
3923;DHT22;1976;51.694;6.256;2022-11-15T10:59:49;18.00;97.30
3923;DHT22;1976;51.694;6.256;2022-11-15T11:04:56;18.40;95.30
3923;DHT22;1976;51.694;6.256;2022-11-15T11:10:05;18.90;94.00
3923;DHT22;1976;51.694;6.256;2022-11-15T11:12:33;18.80;94.10
3923;DHT22;1976;51.694;6.256;2022-11-15T11:15:00;18.40;94.40
3923;DHT22;1976;51.694;6.256;2022-11-15T11:25:35;17.90;93.80
3923;DHT22;1976;51.694;6.256;2022-11-15T11:34:15;18.20;95.00
3923;DHT22;1976;51.694;6.256;2022-11-15T11:36:53;18.60;94.30
3923;DHT22;1976;51.694;6.256;2022-11-15T11:42:50;18.50;92.30
3923;DHT22;1976;51.694;6.256;2022-11-15T11:50:37;19.10;91.90
3923;DHT22;1976;51.694;6.256;2022-11-15T11:53:26;18.90;91.40
3923;DHT22;1976;51.694;6.256;2022-11-15T11:58:35;19.00;91.20
3923;DHT22;1976;51.694;6.256;2022-11-15T12:14:46;18.70;90.50
3923;DHT22;1976;51.694;6.256;2022-11-15T12:17:16;18.60;90.70
3923;DHT22;1976;51.694;6.256;2022-11-15T12:30:00;19.10;90.80
3923;DHT22;1976;51.694;6.256;2022-11-15T12:34:55;19.50;89.00
3923;DHT22;1976;51.694;6.256;2022-11-15T12:42:56;19.80;88.10
3923;DHT22;1976;51.694;6.256;2022-11-15T12:47:53;20.20;84.90
3923;DHT22;1976;51.694;6.256;2022-11-15T12:53:34;20.50;84.20
3923;DHT22;1976;51.694;6.256;2022-11-15T13:01:07;20.90;82.70
3923;DHT22;1976;51.694;6.256;2022-11-15T13:06:04;21.50;82.70
3923;DHT22;1976;51.694;6.256;2022-11-15T13:08:45;21.70;83.30
3923;DHT22;1976;51.694;6.256;2022-11-15T13:11:44;22.20;83.00
3923;DHT22;1976;51.694;6.256;2022-11-15T13:17:10;22.50;80.60
3923;DHT22;1976;51.694;6.256;2022-11-15T13:22:10;21.40;81.00
3923;DHT22;1976;51.694;6.256;2022-11-15T13:24:55;20.80;81.20
3923;DHT22;1976;51.694;6.256;2022-11-15T13:27:21;20.40;82.10
3923;DHT22;1976;51.694;6.256;2022-11-15T13:32:14;19.90;83.50
3923;DHT22;1976;51.694;6.256;2022-11-15T13:34:45;19.80;83.90
3923;DHT22;1976;51.694;6.256;2022-11-15T13:44:57;20.50;81.80
3923;DHT22;1976;51.694;6.256;2022-11-15T13:47:26;20.40;80.90
3923;DHT22;1976;51.694;6.256;2022-11-15T13:49:58;20.30;81.10
3923;DHT22;1976;51.694;6.256;2022-11-15T13:52:31;20.20;81.70
3923;DHT22;1976;51.694;6.256;2022-11-15T13:55:41;20.10;82.30
3923;DHT22;1976;51.694;6.256;2022-11-15T13:58:03;19.90;82.30
3923;DHT22;1976;51.694;6.256;2022-11-15T14:00:40;19.70;83.30
3923;DHT22;1976;51.694;6.256;2022-11-15T14:03:21;19.70;82.60
3923;DHT22;1976;51.694;6.256;2022-11-15T14:06:12;19.70;81.80
3923;DHT22;1976;51.694;6.256;2022-11-15T14:11:25;19.10;83.30
3923;DHT22;1976;51.694;6.256;2022-11-15T14:16:42;18.30;84.70
3923;DHT22;1976;51.694;6.256;2022-11-15T14:24:33;17.50;86.70
3923;DHT22;1976;51.694;6.256;2022-11-15T14:27:16;17.30;87.90
3923;DHT22;1976;51.694;6.256;2022-11-15T14:32:56;16.70;89.10
3923;DHT22;1976;51.694;6.256;2022-11-15T14:35:03;16.60;90.00
3923;DHT22;1976;51.694;6.256;2022-11-15T14:37:32;16.50;90.60
3923;DHT22;1976;51.694;6.256;2022-11-15T14:40:05;16.50;90.70
3923;DHT22;1976;51.694;6.256;2022-11-15T14:42:31;16.40;91.10
3923;DHT22;1976;51.694;6.256;2022-11-15T14:44:57;16.40;91.20
3923;DHT22;1976;51.694;6.256;2022-11-15T14:47:23;16.40;91.50
3923;DHT22;1976;51.694;6.256;2022-11-15T14:49:48;16.20;91.90
3923;DHT22;1976;51.694;6.256;2022-11-15T14:52:24;16.20;92.20
3923;DHT22;1976;51.694;6.256;2022-11-15T14:54:50;16.20;92.40
3923;DHT22;1976;51.694;6.256;2022-11-15T14:57:16;16.00;92.80
3923;DHT22;1976;51.694;6.256;2022-11-15T15:02:23;15.90;93.50
3923;DHT22;1976;51.694;6.256;2022-11-15T15:04:50;15.80;94.00
3923;DHT22;1976;51.694;6.256;2022-11-15T15:07:16;15.80;94.20
3923;DHT22;1976;51.694;6.256;2022-11-15T15:09:42;15.70;94.50
3923;DHT22;1976;51.694;6.256;2022-11-15T15:12:19;15.70;94.80
3923;DHT22;1976;51.694;6.256;2022-11-15T15:14:47;15.70;95.00
3923;DHT22;1976;51.694;6.256;2022-11-15T15:17:13;15.70;95.40
3923;DHT22;1976;51.694;6.256;2022-11-15T15:19:38;15.70;95.40
3923;DHT22;1976;51.694;6.256;2022-11-15T15:22:05;15.60;95.60
3923;DHT22;1976;51.694;6.256;2022-11-15T15:24:33;15.60;95.90
3923;DHT22;1976;51.694;6.256;2022-11-15T15:29:25;15.50;96.40
3923;DHT22;1976;51.694;6.256;2022-11-15T15:34:17;15.40;96.80
3923;DHT22;1976;51.694;6.256;2022-11-15T15:36:42;15.40;96.90
3923;DHT22;1976;51.694;6.256;2022-11-15T15:39:10;15.40;97.10
3923;DHT22;1976;51.694;6.256;2022-11-15T15:41:36;15.40;97.30
3923;DHT22;1976;51.694;6.256;2022-11-15T15:44:02;15.40;97.40
3923;DHT22;1976;51.694;6.256;2022-11-15T15:46:27;15.40;97.50
3923;DHT22;1976;51.694;6.256;2022-11-15T15:48:53;15.40;97.50
3923;DHT22;1976;51.694;6.256;2022-11-15T15:51:19;15.40;97.70
3923;DHT22;1976;51.694;6.256;2022-11-15T15:53:44;15.40;97.90
3923;DHT22;1976;51.694;6.256;2022-11-15T15:56:10;15.30;97.80
3923;DHT22;1976;51.694;6.256;2022-11-15T15:58:36;15.30;98.00
3923;DHT22;1976;51.694;6.256;2022-11-15T16:01:01;15.30;98.20
3923;DHT22;1976;51.694;6.256;2022-11-15T16:03:27;15.30;98.40
3923;DHT22;1976;51.694;6.256;2022-11-15T16:05:54;15.30;98.20
3923;DHT22;1976;51.694;6.256;2022-11-15T16:08:22;15.30;98.40
3923;DHT22;1976;51.694;6.256;2022-11-15T16:10:48;15.30;98.70
3923;DHT22;1976;51.694;6.256;2022-11-15T16:13:14;15.30;98.40
3923;DHT22;1976;51.694;6.256;2022-11-15T16:15:40;15.30;98.50
3923;DHT22;1976;51.694;6.256;2022-11-15T16:18:14;15.30;98.60
3923;DHT22;1976;51.694;6.256;2022-11-15T16:20:46;15.30;98.90
3923;DHT22;1976;51.694;6.256;2022-11-15T16:23:16;15.30;98.90
3923;DHT22;1976;51.694;6.256;2022-11-15T16:25:54;15.30;99.10
3923;DHT22;1976;51.694;6.256;2022-11-15T16:28:32;15.30;99.10
3923;DHT22;1976;51.694;6.256;2022-11-15T16:33:26;15.30;99.30
3923;DHT22;1976;51.694;6.256;2022-11-15T16:38:18;15.30;99.40
3923;DHT22;1976;51.694;6.256;2022-11-15T16:40:44;15.30;99.70
3923;DHT22;1976;51.694;6.256;2022-11-15T16:43:10;15.30;99.70
3923;DHT22;1976;51.694;6.256;2022-11-15T16:48:02;15.30;99.90
3923;DHT22;1976;51.694;6.256;2022-11-15T16:50:33;15.20;99.90
3923;DHT22;1976;51.694;6.256;2022-11-15T16:53:05;15.20;99.90
3923;DHT22;1976;51.694;6.256;2022-11-15T16:55:30;15.20;99.90
3923;DHT22;1976;51.694;6.256;2022-11-15T16:57:56;15.20;99.90
3923;DHT22;1976;51.694;6.256;2022-11-15T17:00:26;15.20;99.90
3923;DHT22;1976;51.694;6.256;2022-11-15T17:02:52;15.20;99.90
3923;DHT22;1976;51.694;6.256;2022-11-15T17:05:20;15.20;99.90
3923;DHT22;1976;51.694;6.256;2022-11-15T17:07:48;15.20;99.90
3923;DHT22;1976;51.694;6.256;2022-11-15T17:10:15;15.20;99.90
3923;DHT22;1976;51.694;6.256;2022-11-15T17:12:41;15.20;99.90
3923;DHT22;1976;51.694;6.256;2022-11-15T17:15:07;15.10;99.90
3923;DHT22;1976;51.694;6.256;2022-11-15T17:17:33;15.00;99.90
3923;DHT22;1976;51.694;6.256;2022-11-15T17:19:58;15.00;99.90
3923;DHT22;1976;51.694;6.256;2022-11-15T17:22:24;15.00;99.90
3923;DHT22;1976;51.694;6.256;2022-11-15T17:24:50;14.90;99.90
3923;DHT22;1976;51.694;6.256;2022-11-15T17:27:15;14.90;99.90
3923;DHT22;1976;51.694;6.256;2022-11-15T17:29:41;14.70;99.90
3923;DHT22;1976;51.694;6.256;2022-11-15T17:32:07;14.80;99.90
3923;DHT22;1976;51.694;6.256;2022-11-15T17:34:33;14.70;99.90
3923;DHT22;1976;51.694;6.256;2022-11-15T17:36:59;14.70;99.90
3923;DHT22;1976;51.694;6.256;2022-11-15T17:39:25;14.70;99.90
3923;DHT22;1976;51.694;6.256;2022-11-15T17:41:51;14.70;99.90
3923;DHT22;1976;51.694;6.256;2022-11-15T17:44:16;14.70;99.90
3923;DHT22;1976;51.694;6.256;2022-11-15T17:46:43;14.50;99.90
3923;DHT22;1976;51.694;6.256;2022-11-15T17:49:09;14.50;99.90
3923;DHT22;1976;51.694;6.256;2022-11-15T17:51:34;14.40;99.90
3923;DHT22;1976;51.694;6.256;2022-11-15T17:54:00;14.10;99.90
3923;DHT22;1976;51.694;6.256;2022-11-15T17:56:27;13.90;99.90
3923;DHT22;1976;51.694;6.256;2022-11-15T17:58:55;13.70;99.90
3923;DHT22;1976;51.694;6.256;2022-11-15T18:01:39;13.60;99.90
3923;DHT22;1976;51.694;6.256;2022-11-15T18:04:07;13.70;99.90
3923;DHT22;1976;51.694;6.256;2022-11-15T18:06:34;13.80;99.90
3923;DHT22;1976;51.694;6.256;2022-11-15T18:09:01;13.90;99.90
3923;DHT22;1976;51.694;6.256;2022-11-15T18:11:29;14.00;99.90
3923;DHT22;1976;51.694;6.256;2022-11-15T18:13:59;14.10;99.90
3923;DHT22;1976;51.694;6.256;2022-11-15T18:16:27;14.20;99.90
3923;DHT22;1976;51.694;6.256;2022-11-15T18:18:53;14.10;99.90
3923;DHT22;1976;51.694;6.256;2022-11-15T18:21:25;14.10;99.90
3923;DHT22;1976;51.694;6.256;2022-11-15T18:23:59;13.90;99.90
3923;DHT22;1976;51.694;6.256;2022-11-15T18:26:26;13.90;99.90
3923;DHT22;1976;51.694;6.256;2022-11-15T18:28:55;13.90;99.90
3923;DHT22;1976;51.694;6.256;2022-11-15T18:31:25;13.70;99.90
3923;DHT22;1976;51.694;6.256;2022-11-15T18:33:52;13.40;99.90
3923;DHT22;1976;51.694;6.256;2022-11-15T18:36:29;13.30;99.90
3923;DHT22;1976;51.694;6.256;2022-11-15T18:38:56;13.20;99.90
3923;DHT22;1976;51.694;6.256;2022-11-15T18:41:22;13.10;99.90
3923;DHT22;1976;51.694;6.256;2022-11-15T18:43:53;13.10;99.90
3923;DHT22;1976;51.694;6.256;2022-11-15T18:46:22;13.00;99.90
3923;DHT22;1976;51.694;6.256;2022-11-15T18:48:49;12.90;99.90
3923;DHT22;1976;51.694;6.256;2022-11-15T18:51:17;12.90;99.90
3923;DHT22;1976;51.694;6.256;2022-11-15T18:53:44;12.90;99.90
3923;DHT22;1976;51.694;6.256;2022-11-15T18:56:10;12.80;99.90
3923;DHT22;1976;51.694;6.256;2022-11-15T18:58:39;12.80;99.90
3923;DHT22;1976;51.694;6.256;2022-11-15T19:01:16;12.80;99.90
3923;DHT22;1976;51.694;6.256;2022-11-15T19:03:44;12.70;99.90
3923;DHT22;1976;51.694;6.256;2022-11-15T19:06:12;12.60;99.90
3923;DHT22;1976;51.694;6.256;2022-11-15T19:08:39;12.70;99.90
3923;DHT22;1976;51.694;6.256;2022-11-15T19:11:11;12.60;99.90
3923;DHT22;1976;51.694;6.256;2022-11-15T19:13:37;12.50;99.90
3923;DHT22;1976;51.694;6.256;2022-11-15T19:16:04;12.50;99.90
3923;DHT22;1976;51.694;6.256;2022-11-15T19:18:31;12.50;99.90
3923;DHT22;1976;51.694;6.256;2022-11-15T19:21:05;12.40;99.90
3923;DHT22;1976;51.694;6.256;2022-11-15T19:23:41;12.40;99.90
3923;DHT22;1976;51.694;6.256;2022-11-15T19:26:11;12.30;99.90
3923;DHT22;1976;51.694;6.256;2022-11-15T19:28:38;12.20;99.90
3923;DHT22;1976;51.694;6.256;2022-11-15T19:31:10;12.20;99.90
3923;DHT22;1976;51.694;6.256;2022-11-15T19:33:36;12.30;99.90
3923;DHT22;1976;51.694;6.256;2022-11-15T19:36:14;12.20;99.90
3923;DHT22;1976;51.694;6.256;2022-11-15T19:38:40;12.20;99.90
3923;DHT22;1976;51.694;6.256;2022-11-15T19:41:09;12.20;99.90
3923;DHT22;1976;51.694;6.256;2022-11-15T19:43:35;12.20;99.90
3923;DHT22;1976;51.694;6.256;2022-11-15T19:46:03;12.30;99.90
3923;DHT22;1976;51.694;6.256;2022-11-15T19:48:30;12.30;99.90
3923;DHT22;1976;51.694;6.256;2022-11-15T19:51:02;12.30;99.90
3923;DHT22;1976;51.694;6.256;2022-11-15T19:53:29;12.20;99.90
3923;DHT22;1976;51.694;6.256;2022-11-15T19:55:57;12.20;99.90
3923;DHT22;1976;51.694;6.256;2022-11-15T19:58:23;12.20;99.90
3923;DHT22;1976;51.694;6.256;2022-11-15T20:00:49;12.20;99.90
3923;DHT22;1976;51.694;6.256;2022-11-15T20:03:15;12.30;99.90
3923;DHT22;1976;51.694;6.256;2022-11-15T20:05:41;12.30;99.90
3923;DHT22;1976;51.694;6.256;2022-11-15T20:08:07;12.30;99.90
3923;DHT22;1976;51.694;6.256;2022-11-15T20:10:34;12.40;99.90
3923;DHT22;1976;51.694;6.256;2022-11-15T20:12:59;12.40;99.90
3923;DHT22;1976;51.694;6.256;2022-11-15T20:15:25;12.40;99.90
3923;DHT22;1976;51.694;6.256;2022-11-15T20:17:50;12.40;99.90
3923;DHT22;1976;51.694;6.256;2022-11-15T20:20:16;12.40;99.90
3923;DHT22;1976;51.694;6.256;2022-11-15T20:22:42;12.40;99.90
3923;DHT22;1976;51.694;6.256;2022-11-15T20:25:08;12.40;99.90
3923;DHT22;1976;51.694;6.256;2022-11-15T20:27:34;12.40;99.90
3923;DHT22;1976;51.694;6.256;2022-11-15T20:30:00;12.40;99.90
3923;DHT22;1976;51.694;6.256;2022-11-15T20:32:26;12.40;99.90
3923;DHT22;1976;51.694;6.256;2022-11-15T20:34:52;12.40;99.90